SWA1496 KLAS-KSTL
Flight info
| Callsign | SWA1496 |
|---|---|
| Flight time | 2h 29m |
| Altitude | 39000 |
| Route | GIDGT3 TUKRR PUB KD51Y KK54E ANX KAYLA3 |
| Aircraft | B738/M-SDE2E3FGHIRWXY/LB1 |
Departure
| Time | 2026-05-05 13:19 |
|---|---|
| Airport | Harry Reid International Airport (KLAS) |
Arrival
| Time | 2026-05-05 15:49 |
|---|---|
| Airport | St. Louis Lambert International Airport (KSTL) |
| Time | Latitude | Longitude | Altitude | Speed | Heading |
|---|---|---|---|---|---|
| 2026-05-05 12:29 | 36.07968 | -115.14623 | 2096 ft | 0 kts | 354° |
| 2026-05-05 13:03 | 36.07958 | -115.14622 | 2096 ft | 4 kts | 354° |
| 2026-05-05 13:04 | 36.07932 | -115.14619 | 2096 ft | 2 kts | 354° |
| 2026-05-05 13:04 | 36.07910 | -115.14616 | 2096 ft | 4 kts | 358° |
| 2026-05-05 13:04 | 36.07892 | -115.14616 | 2096 ft | 4 kts | 3° |
| 2026-05-05 13:04 | 36.07858 | -115.14625 | 2096 ft | 4 kts | 38° |
| 2026-05-05 13:05 | 36.07848 | -115.14647 | 2096 ft | 4 kts | 95° |
| 2026-05-05 13:05 | 36.07850 | -115.14672 | 2096 ft | 0 kts | 95° |
| 2026-05-05 13:09 | 36.07850 | -115.14667 | 2096 ft | 2 kts | 95° |
| 2026-05-05 13:09 | 36.07847 | -115.14628 | 2095 ft | 6 kts | 95° |
| 2026-05-05 13:09 | 36.07844 | -115.14577 | 2095 ft | 6 kts | 95° |
| 2026-05-05 13:09 | 36.07840 | -115.14525 | 2095 ft | 7 kts | 95° |
| 2026-05-05 13:10 | 36.07834 | -115.14453 | 2095 ft | 10 kts | 95° |
| 2026-05-05 13:10 | 36.07828 | -115.14353 | 2095 ft | 13 kts | 92° |
| 2026-05-05 13:10 | 36.07827 | -115.14239 | 2094 ft | 13 kts | 90° |
| 2026-05-05 13:10 | 36.07827 | -115.14127 | 2093 ft | 13 kts | 89° |
| 2026-05-05 13:11 | 36.07827 | -115.14019 | 2092 ft | 13 kts | 90° |
| 2026-05-05 13:11 | 36.07827 | -115.13913 | 2092 ft | 12 kts | 90° |
| 2026-05-05 13:11 | 36.07828 | -115.13809 | 2092 ft | 12 kts | 90° |
| 2026-05-05 13:11 | 36.07828 | -115.13708 | 2091 ft | 12 kts | 90° |
| 2026-05-05 13:12 | 36.07828 | -115.13604 | 2091 ft | 13 kts | 90° |
| 2026-05-05 13:12 | 36.07828 | -115.13487 | 2090 ft | 15 kts | 90° |
| 2026-05-05 13:12 | 36.07828 | -115.13358 | 2088 ft | 15 kts | 90° |
| 2026-05-05 13:12 | 36.07827 | -115.13220 | 2085 ft | 16 kts | 90° |
| 2026-05-05 13:13 | 36.07827 | -115.13072 | 2080 ft | 18 kts | 90° |
| 2026-05-05 13:13 | 36.07828 | -115.12908 | 2073 ft | 20 kts | 89° |
| 2026-05-05 13:13 | 36.07829 | -115.12739 | 2066 ft | 19 kts | 90° |
| 2026-05-05 13:13 | 36.07828 | -115.12577 | 2060 ft | 18 kts | 90° |
| 2026-05-05 13:14 | 36.07829 | -115.12424 | 2056 ft | 16 kts | 90° |
| 2026-05-05 13:14 | 36.07829 | -115.12303 | 2053 ft | 11 kts | 90° |
| 2026-05-05 13:14 | 36.07806 | -115.12235 | 2051 ft | 9 kts | 126° |
| 2026-05-05 13:14 | 36.07771 | -115.12181 | 2049 ft | 8 kts | 129° |
| 2026-05-05 13:15 | 36.07744 | -115.12140 | 2048 ft | 0 kts | 132° |
| 2026-05-05 13:17 | 36.07740 | -115.12136 | 2048 ft | 2 kts | 140° |
| 2026-05-05 13:17 | 36.07720 | -115.12127 | 2049 ft | 4 kts | 165° |
| 2026-05-05 13:18 | 36.07682 | -115.12123 | 2048 ft | 6 kts | 178° |
| 2026-05-05 13:18 | 36.07648 | -115.12150 | 2047 ft | 6 kts | 250° |
| 2026-05-05 13:18 | 36.07644 | -115.12204 | 2049 ft | 6 kts | 269° |
| 2026-05-05 13:18 | 36.07643 | -115.12271 | 2050 ft | 17 kts | 269° |
| 2026-05-05 13:19 | 36.07641 | -115.12705 | 2066 ft | 83 kts | 270° |
| 2026-05-05 13:19 | 36.07640 | -115.13679 | 2091 ft | 142 kts | 270° |
| 2026-05-05 13:19 | 36.07655 | -115.15101 | 2229 ft | 180 kts | 269° |
| 2026-05-05 13:19 | 36.07710 | -115.16639 | 3036 ft | 178 kts | 270° |
| 2026-05-05 13:20 | 36.07720 | -115.18114 | 3959 ft | 169 kts | 267° |
| 2026-05-05 13:20 | 36.07698 | -115.19637 | 4384 ft | 191 kts | 266° |
| 2026-05-05 13:20 | 36.07672 | -115.21385 | 4623 ft | 214 kts | 267° |
| 2026-05-05 13:20 | 36.07657 | -115.23281 | 5036 ft | 225 kts | 267° |
| 2026-05-05 13:21 | 36.07649 | -115.25203 | 5606 ft | 227 kts | 268° |
| 2026-05-05 13:21 | 36.07918 | -115.27137 | 6153 ft | 236 kts | 297° |
| 2026-05-05 13:21 | 36.09103 | -115.28596 | 6543 ft | 254 kts | 335° |
| 2026-05-05 13:21 | 36.10835 | -115.29191 | 7102 ft | 262 kts | 348° |
| 2026-05-05 13:22 | 36.12638 | -115.29651 | 7790 ft | 266 kts | 351° |
| 2026-05-05 13:22 | 36.14479 | -115.29550 | 8488 ft | 268 kts | 20° |
| 2026-05-05 13:22 | 36.16074 | -115.28334 | 8978 ft | 279 kts | 49° |
| 2026-05-05 13:22 | 36.17181 | -115.26307 | 9460 ft | 289 kts | 62° |
| 2026-05-05 13:23 | 36.18018 | -115.24059 | 10101 ft | 292 kts | 70° |
| 2026-05-05 13:23 | 36.18752 | -115.21637 | 10424 ft | 311 kts | 71° |
| 2026-05-05 13:23 | 36.19500 | -115.19035 | 10723 ft | 327 kts | 76° |
| 2026-05-05 13:23 | 36.19716 | -115.16224 | 11325 ft | 330 kts | 92° |
| 2026-05-05 13:24 | 36.19686 | -115.13366 | 12063 ft | 333 kts | 92° |
| 2026-05-05 13:24 | 36.19661 | -115.10483 | 12740 ft | 337 kts | 92° |
| 2026-05-05 13:24 | 36.19643 | -115.07555 | 13466 ft | 341 kts | 91° |
| 2026-05-05 13:24 | 36.19632 | -115.04597 | 14148 ft | 345 kts | 91° |
| 2026-05-05 13:25 | 36.19625 | -115.01605 | 14826 ft | 349 kts | 91° |
| 2026-05-05 13:25 | 36.19621 | -114.98573 | 15476 ft | 354 kts | 91° |
| 2026-05-05 13:25 | 36.19619 | -114.95508 | 16141 ft | 358 kts | 91° |
| 2026-05-05 13:25 | 36.19616 | -114.92407 | 16810 ft | 362 kts | 91° |
| 2026-05-05 13:26 | 36.19613 | -114.89309 | 17469 ft | 367 kts | 91° |
| 2026-05-05 13:26 | 36.19610 | -114.86136 | 18119 ft | 371 kts | 91° |
| 2026-05-05 13:26 | 36.19605 | -114.82921 | 18691 ft | 375 kts | 91° |
| 2026-05-05 13:26 | 36.19600 | -114.79670 | 19290 ft | 379 kts | 91° |
| 2026-05-05 13:27 | 36.19594 | -114.76396 | 19873 ft | 382 kts | 92° |
| 2026-05-05 13:27 | 36.19587 | -114.73089 | 20435 ft | 386 kts | 92° |
| 2026-05-05 13:27 | 36.19578 | -114.69745 | 21002 ft | 390 kts | 92° |
| 2026-05-05 13:27 | 36.19569 | -114.66374 | 21572 ft | 394 kts | 92° |
| 2026-05-05 13:28 | 36.19561 | -114.62971 | 22119 ft | 397 kts | 92° |
| 2026-05-05 13:28 | 36.19553 | -114.59534 | 22671 ft | 401 kts | 92° |
| 2026-05-05 13:28 | 36.19545 | -114.56061 | 23212 ft | 405 kts | 92° |
| 2026-05-05 13:28 | 36.19535 | -114.52562 | 23673 ft | 408 kts | 93° |
| 2026-05-05 13:29 | 36.19524 | -114.49033 | 24111 ft | 412 kts | 93° |
| 2026-05-05 13:29 | 36.19512 | -114.45464 | 24534 ft | 416 kts | 93° |
| 2026-05-05 13:29 | 36.19499 | -114.41868 | 24937 ft | 419 kts | 93° |
| 2026-05-05 13:29 | 36.19485 | -114.38240 | 25337 ft | 423 kts | 93° |
| 2026-05-05 13:30 | 36.19469 | -114.34581 | 25716 ft | 428 kts | 94° |
| 2026-05-05 13:30 | 36.19453 | -114.30879 | 26091 ft | 432 kts | 94° |
| 2026-05-05 13:30 | 36.19435 | -114.27194 | 26483 ft | 435 kts | 94° |
| 2026-05-05 13:30 | 36.19435 | -114.23436 | 26890 ft | 439 kts | 91° |
| 2026-05-05 13:31 | 36.19703 | -114.19641 | 27278 ft | 445 kts | 85° |
| 2026-05-05 13:31 | 36.20162 | -114.15838 | 27667 ft | 449 kts | 83° |
| 2026-05-05 13:31 | 36.20690 | -114.11995 | 28022 ft | 453 kts | 83° |
| 2026-05-05 13:31 | 36.21224 | -114.08139 | 28371 ft | 456 kts | 83° |
| 2026-05-05 13:32 | 36.21743 | -114.04247 | 28624 ft | 461 kts | 84° |
| 2026-05-05 13:32 | 36.22245 | -114.00293 | 28884 ft | 467 kts | 84° |
| 2026-05-05 13:32 | 36.22731 | -113.96304 | 29242 ft | 469 kts | 85° |
| 2026-05-05 13:32 | 36.23208 | -113.92296 | 29620 ft | 471 kts | 85° |
| 2026-05-05 13:33 | 36.23677 | -113.88303 | 29935 ft | 474 kts | 85° |
| 2026-05-05 13:33 | 36.24151 | -113.84236 | 30191 ft | 478 kts | 85° |
| 2026-05-05 13:33 | 36.24628 | -113.80132 | 30433 ft | 482 kts | 85° |
| 2026-05-05 13:33 | 36.25106 | -113.76013 | 30665 ft | 485 kts | 85° |
| 2026-05-05 13:34 | 36.25587 | -113.71862 | 30856 ft | 489 kts | 86° |
| 2026-05-05 13:34 | 36.26073 | -113.67656 | 30996 ft | 494 kts | 86° |
| 2026-05-05 13:34 | 36.26561 | -113.63431 | 31224 ft | 497 kts | 86° |
| 2026-05-05 13:34 | 36.27044 | -113.59237 | 31500 ft | 499 kts | 86° |
| 2026-05-05 13:35 | 36.27534 | -113.54970 | 31730 ft | 501 kts | 86° |
| 2026-05-05 13:35 | 36.28026 | -113.50675 | 31936 ft | 504 kts | 86° |
| 2026-05-05 13:35 | 36.28518 | -113.46356 | 32188 ft | 507 kts | 86° |
| 2026-05-05 13:35 | 36.29011 | -113.42028 | 32479 ft | 507 kts | 87° |
| 2026-05-05 13:36 | 36.29502 | -113.37686 | 32614 ft | 511 kts | 87° |
| 2026-05-05 13:36 | 36.29996 | -113.33303 | 32735 ft | 516 kts | 87° |
| 2026-05-05 13:36 | 36.30493 | -113.28895 | 33027 ft | 516 kts | 88° |
| 2026-05-05 13:36 | 36.30991 | -113.24471 | 33266 ft | 518 kts | 88° |
| 2026-05-05 13:37 | 36.31834 | -113.20073 | 33297 ft | 534 kts | 72° |
| 2026-05-05 13:37 | 36.33297 | -113.15818 | 33621 ft | 536 kts | 69° |
| 2026-05-05 13:37 | 36.34819 | -113.11688 | 34141 ft | 530 kts | 68° |
| 2026-05-05 13:37 | 36.36361 | -113.07555 | 34490 ft | 527 kts | 69° |
| 2026-05-05 13:38 | 36.39421 | -112.99168 | 34639 ft | 536 kts | 70° |
| 2026-05-05 13:38 | 36.40926 | -112.94936 | 34905 ft | 535 kts | 70° |
| 2026-05-05 13:38 | 36.42414 | -112.90703 | 35262 ft | 532 kts | 70° |
| 2026-05-05 13:39 | 36.43885 | -112.86496 | 35608 ft | 529 kts | 70° |
| 2026-05-05 13:39 | 36.45345 | -112.82303 | 35875 ft | 528 kts | 70° |
| 2026-05-05 13:39 | 36.46802 | -112.78111 | 36052 ft | 529 kts | 70° |
| 2026-05-05 13:39 | 36.48266 | -112.73899 | 36216 ft | 531 kts | 70° |
| 2026-05-05 13:40 | 36.49732 | -112.69677 | 36359 ft | 532 kts | 70° |
| 2026-05-05 13:40 | 36.51181 | -112.65502 | 36625 ft | 531 kts | 70° |
| 2026-05-05 13:40 | 36.52641 | -112.61298 | 36971 ft | 528 kts | 70° |
| 2026-05-05 13:40 | 36.54096 | -112.57103 | 37294 ft | 526 kts | 70° |
| 2026-05-05 13:41 | 36.55541 | -112.52929 | 37523 ft | 525 kts | 70° |
| 2026-05-05 13:41 | 36.56986 | -112.48748 | 37703 ft | 526 kts | 70° |
| 2026-05-05 13:41 | 36.58429 | -112.44564 | 37880 ft | 526 kts | 70° |
| 2026-05-05 13:41 | 36.59871 | -112.40379 | 38022 ft | 527 kts | 70° |
| 2026-05-05 13:42 | 36.61315 | -112.36180 | 38154 ft | 528 kts | 70° |
| 2026-05-05 13:42 | 36.62759 | -112.31978 | 38401 ft | 527 kts | 70° |
| 2026-05-05 13:42 | 36.64181 | -112.27836 | 38674 ft | 525 kts | 70° |
| 2026-05-05 13:42 | 36.65612 | -112.23663 | 38866 ft | 523 kts | 70° |
| 2026-05-05 13:43 | 36.68471 | -112.15300 | 38923 ft | 526 kts | 70° |
| 2026-05-05 13:43 | 36.71331 | -112.06914 | 38921 ft | 523 kts | 70° |
| 2026-05-05 13:44 | 36.74168 | -111.98571 | 38922 ft | 521 kts | 70° |
| 2026-05-05 13:44 | 36.76979 | -111.90280 | 38913 ft | 521 kts | 70° |
| 2026-05-05 13:45 | 36.79797 | -111.81947 | 38916 ft | 521 kts | 70° |
| 2026-05-05 13:45 | 36.82609 | -111.73608 | 38889 ft | 520 kts | 70° |
| 2026-05-05 13:46 | 36.85406 | -111.65269 | 38902 ft | 521 kts | 72° |
| 2026-05-05 13:46 | 36.87662 | -111.56706 | 38904 ft | 518 kts | 78° |
| 2026-05-05 13:47 | 36.89533 | -111.48062 | 38950 ft | 520 kts | 79° |
| 2026-05-05 13:47 | 36.91438 | -111.39321 | 38946 ft | 522 kts | 79° |
| 2026-05-05 13:48 | 36.93421 | -111.30588 | 38942 ft | 523 kts | 78° |
| 2026-05-05 13:48 | 36.95439 | -111.21846 | 38927 ft | 523 kts | 78° |
| 2026-05-05 13:49 | 36.97455 | -111.13101 | 38891 ft | 523 kts | 78° |
| 2026-05-05 13:49 | 36.99460 | -111.04345 | 38893 ft | 523 kts | 78° |
| 2026-05-05 13:50 | 37.01453 | -110.95594 | 38891 ft | 522 kts | 78° |
| 2026-05-05 13:50 | 37.03422 | -110.86911 | 38900 ft | 523 kts | 79° |
| 2026-05-05 13:51 | 37.05397 | -110.78171 | 38884 ft | 521 kts | 79° |
| 2026-05-05 13:51 | 37.07366 | -110.69428 | 38892 ft | 521 kts | 79° |
| 2026-05-05 13:52 | 37.09325 | -110.60692 | 38901 ft | 521 kts | 79° |
| 2026-05-05 13:52 | 37.10950 | -110.53418 | 38894 ft | 522 kts | 79° |
| 2026-05-05 13:53 | 37.12906 | -110.44635 | 38880 ft | 525 kts | 79° |
| 2026-05-05 13:53 | 37.15183 | -110.34368 | 38886 ft | 526 kts | 79° |
| 2026-05-05 13:54 | 37.16821 | -110.26953 | 38892 ft | 527 kts | 79° |
| 2026-05-05 13:54 | 37.18776 | -110.18075 | 38895 ft | 528 kts | 79° |
| 2026-05-05 13:55 | 37.20715 | -110.09232 | 38868 ft | 529 kts | 78° |
| 2026-05-05 13:55 | 37.22661 | -110.00328 | 38855 ft | 529 kts | 79° |
| 2026-05-05 13:56 | 37.24600 | -109.91416 | 38888 ft | 529 kts | 79° |
| 2026-05-05 13:56 | 37.26534 | -109.82494 | 38900 ft | 530 kts | 79° |
| 2026-05-05 13:57 | 37.28467 | -109.73537 | 38880 ft | 531 kts | 79° |
| 2026-05-05 13:57 | 37.30392 | -109.64583 | 38910 ft | 531 kts | 79° |
| 2026-05-05 13:58 | 37.32303 | -109.55661 | 38917 ft | 532 kts | 79° |
| 2026-05-05 13:58 | 37.34220 | -109.46673 | 38933 ft | 532 kts | 79° |
| 2026-05-05 13:59 | 37.37089 | -109.33152 | 38929 ft | 533 kts | 79° |
| 2026-05-05 14:00 | 37.39944 | -109.19616 | 38919 ft | 534 kts | 79° |
| 2026-05-05 14:00 | 37.41841 | -109.10572 | 38885 ft | 534 kts | 79° |
| 2026-05-05 14:01 | 37.43721 | -109.01577 | 38895 ft | 534 kts | 79° |
| 2026-05-05 14:01 | 37.45603 | -108.92531 | 38910 ft | 535 kts | 79° |
| 2026-05-05 14:02 | 37.47481 | -108.83465 | 38903 ft | 535 kts | 79° |
| 2026-05-05 14:02 | 37.49357 | -108.74375 | 38940 ft | 535 kts | 79° |
| 2026-05-05 14:03 | 37.51224 | -108.65289 | 38958 ft | 535 kts | 79° |
| 2026-05-05 14:03 | 37.53084 | -108.56200 | 38958 ft | 536 kts | 79° |
| 2026-05-05 14:04 | 37.54936 | -108.47109 | 38943 ft | 536 kts | 79° |
| 2026-05-05 14:04 | 37.56772 | -108.38056 | 38913 ft | 536 kts | 79° |
| 2026-05-05 14:05 | 37.58616 | -108.28931 | 38901 ft | 536 kts | 79° |
| 2026-05-05 14:05 | 37.60450 | -108.19807 | 38914 ft | 537 kts | 79° |
| 2026-05-05 14:06 | 37.62279 | -108.10677 | 38936 ft | 536 kts | 79° |
| 2026-05-05 14:06 | 37.64099 | -108.01552 | 38968 ft | 537 kts | 79° |
| 2026-05-05 14:07 | 37.65917 | -107.92399 | 38956 ft | 537 kts | 79° |
| 2026-05-05 14:07 | 37.67716 | -107.83291 | 38970 ft | 539 kts | 79° |
| 2026-05-05 14:08 | 37.69524 | -107.74108 | 38913 ft | 539 kts | 79° |
| 2026-05-05 14:08 | 37.71327 | -107.64903 | 38953 ft | 540 kts | 79° |
| 2026-05-05 14:09 | 37.73131 | -107.55645 | 38917 ft | 543 kts | 79° |
| 2026-05-05 14:09 | 37.74931 | -107.46378 | 38918 ft | 543 kts | 79° |
| 2026-05-05 14:10 | 37.76723 | -107.37108 | 38901 ft | 542 kts | 79° |
| 2026-05-05 14:10 | 37.78505 | -107.27851 | 38917 ft | 541 kts | 78° |
| 2026-05-05 14:11 | 37.80262 | -107.18680 | 38903 ft | 540 kts | 79° |
| 2026-05-05 14:11 | 37.82022 | -107.09449 | 38907 ft | 540 kts | 79° |
| 2026-05-05 14:12 | 37.83773 | -107.00218 | 38881 ft | 539 kts | 78° |
| 2026-05-05 14:12 | 37.85515 | -106.91000 | 38891 ft | 537 kts | 79° |
| 2026-05-05 14:13 | 37.87248 | -106.81787 | 38890 ft | 537 kts | 79° |
| 2026-05-05 14:13 | 37.88961 | -106.72634 | 38881 ft | 538 kts | 79° |
| 2026-05-05 14:14 | 37.90679 | -106.63415 | 38917 ft | 538 kts | 79° |
| 2026-05-05 14:14 | 37.92394 | -106.54163 | 38926 ft | 540 kts | 79° |
| 2026-05-05 14:15 | 37.94109 | -106.44874 | 38918 ft | 542 kts | 79° |
| 2026-05-05 14:15 | 37.95821 | -106.35556 | 38917 ft | 543 kts | 79° |
| 2026-05-05 14:16 | 37.97529 | -106.26212 | 38843 ft | 544 kts | 78° |
| 2026-05-05 14:16 | 37.99234 | -106.16847 | 38830 ft | 546 kts | 78° |
| 2026-05-05 14:17 | 38.00925 | -106.07510 | 38852 ft | 547 kts | 78° |
| 2026-05-05 14:17 | 38.02625 | -105.98075 | 38822 ft | 549 kts | 78° |
| 2026-05-05 14:18 | 38.04319 | -105.88629 | 38826 ft | 550 kts | 78° |
| 2026-05-05 14:18 | 38.06008 | -105.79165 | 38833 ft | 550 kts | 78° |
| 2026-05-05 14:19 | 38.07690 | -105.69692 | 38842 ft | 550 kts | 78° |
| 2026-05-05 14:19 | 38.09366 | -105.60215 | 38816 ft | 549 kts | 79° |
| 2026-05-05 14:20 | 38.11026 | -105.50767 | 38829 ft | 547 kts | 78° |
| 2026-05-05 14:20 | 38.12675 | -105.41341 | 38858 ft | 545 kts | 78° |
| 2026-05-05 14:21 | 38.14300 | -105.32005 | 38863 ft | 544 kts | 78° |
| 2026-05-05 14:21 | 38.15924 | -105.22629 | 38855 ft | 543 kts | 79° |
| 2026-05-05 14:22 | 38.17539 | -105.13250 | 38843 ft | 540 kts | 78° |
| 2026-05-05 14:22 | 38.19139 | -105.03918 | 38905 ft | 542 kts | 79° |
| 2026-05-05 14:23 | 38.20747 | -104.94489 | 38905 ft | 548 kts | 79° |
| 2026-05-05 14:23 | 38.22351 | -104.85035 | 38940 ft | 552 kts | 79° |
| 2026-05-05 14:24 | 38.23965 | -104.75476 | 38970 ft | 554 kts | 79° |
| 2026-05-05 14:24 | 38.25579 | -104.65866 | 38998 ft | 556 kts | 79° |
| 2026-05-05 14:25 | 38.27181 | -104.56273 | 38994 ft | 549 kts | 79° |
| 2026-05-05 14:25 | 38.28754 | -104.46815 | 39001 ft | 544 kts | 79° |
| 2026-05-05 14:26 | 38.30059 | -104.37419 | 39009 ft | 541 kts | 85° |
| 2026-05-05 14:26 | 38.30929 | -104.27908 | 38987 ft | 541 kts | 86° |
| 2026-05-05 14:27 | 38.31739 | -104.18368 | 38967 ft | 541 kts | 86° |
| 2026-05-05 14:27 | 38.32591 | -104.08826 | 38944 ft | 542 kts | 85° |
| 2026-05-05 14:28 | 38.33469 | -103.99272 | 38939 ft | 543 kts | 85° |
| 2026-05-05 14:28 | 38.34344 | -103.89745 | 38945 ft | 545 kts | 85° |
| 2026-05-05 14:29 | 38.35214 | -103.80146 | 38940 ft | 546 kts | 85° |
| 2026-05-05 14:29 | 38.36077 | -103.70508 | 38962 ft | 547 kts | 85° |
| 2026-05-05 14:30 | 38.36928 | -103.60906 | 38972 ft | 549 kts | 85° |
| 2026-05-05 14:30 | 38.37777 | -103.51231 | 38972 ft | 550 kts | 85° |
| 2026-05-05 14:31 | 38.38620 | -103.41530 | 38962 ft | 551 kts | 85° |
| 2026-05-05 14:31 | 38.39457 | -103.31823 | 38980 ft | 551 kts | 85° |
| 2026-05-05 14:32 | 38.40287 | -103.22094 | 38973 ft | 551 kts | 85° |
| 2026-05-05 14:32 | 38.41108 | -103.12371 | 38988 ft | 551 kts | 85° |
| 2026-05-05 14:33 | 38.41920 | -103.02658 | 38966 ft | 550 kts | 85° |
| 2026-05-05 14:33 | 38.42718 | -102.93009 | 38976 ft | 550 kts | 85° |
| 2026-05-05 14:34 | 38.43512 | -102.83311 | 38976 ft | 549 kts | 85° |
| 2026-05-05 14:34 | 38.44298 | -102.73624 | 38986 ft | 548 kts | 85° |
| 2026-05-05 14:35 | 38.45074 | -102.63950 | 38973 ft | 548 kts | 85° |
| 2026-05-05 14:35 | 38.45838 | -102.54321 | 38986 ft | 547 kts | 85° |
| 2026-05-05 14:36 | 38.46598 | -102.44648 | 38982 ft | 547 kts | 86° |
| 2026-05-05 14:36 | 38.47349 | -102.34981 | 38977 ft | 548 kts | 85° |
| 2026-05-05 14:37 | 38.48093 | -102.25297 | 38983 ft | 548 kts | 85° |
| 2026-05-05 14:37 | 38.48831 | -102.15594 | 38987 ft | 549 kts | 86° |
| 2026-05-05 14:38 | 38.49557 | -102.05950 | 38974 ft | 548 kts | 86° |
| 2026-05-05 14:38 | 38.50308 | -101.96258 | 38973 ft | 549 kts | 84° |
| 2026-05-05 14:39 | 38.51342 | -101.86576 | 38979 ft | 550 kts | 82° |
| 2026-05-05 14:39 | 38.52279 | -101.78536 | 38976 ft | 550 kts | 82° |
| 2026-05-05 14:40 | 38.53543 | -101.67282 | 38975 ft | 551 kts | 83° |
| 2026-05-05 14:40 | 38.54581 | -101.57581 | 38976 ft | 551 kts | 83° |
| 2026-05-05 14:41 | 38.55427 | -101.49513 | 38973 ft | 551 kts | 83° |
| 2026-05-05 14:41 | 38.56441 | -101.39784 | 38970 ft | 551 kts | 83° |
| 2026-05-05 14:42 | 38.57447 | -101.30082 | 38991 ft | 551 kts | 83° |
| 2026-05-05 14:42 | 38.58451 | -101.20350 | 38998 ft | 553 kts | 83° |
| 2026-05-05 14:43 | 38.59440 | -101.10662 | 39020 ft | 552 kts | 83° |
| 2026-05-05 14:43 | 38.60426 | -101.00928 | 39023 ft | 553 kts | 83° |
| 2026-05-05 14:44 | 38.61407 | -100.91165 | 39032 ft | 553 kts | 83° |
| 2026-05-05 14:44 | 38.62378 | -100.81416 | 39029 ft | 553 kts | 83° |
| 2026-05-05 14:45 | 38.63341 | -100.71656 | 39014 ft | 553 kts | 83° |
| 2026-05-05 14:45 | 38.64290 | -100.61959 | 38996 ft | 553 kts | 83° |
| 2026-05-05 14:46 | 38.65237 | -100.52203 | 38969 ft | 553 kts | 83° |
| 2026-05-05 14:46 | 38.66176 | -100.42433 | 38971 ft | 553 kts | 83° |
| 2026-05-05 14:47 | 38.67108 | -100.32659 | 38976 ft | 553 kts | 83° |
| 2026-05-05 14:47 | 38.68032 | -100.22877 | 38976 ft | 554 kts | 83° |
| 2026-05-05 14:48 | 38.68948 | -100.13083 | 38970 ft | 554 kts | 83° |
| 2026-05-05 14:48 | 38.69852 | -100.03338 | 38973 ft | 554 kts | 83° |
| 2026-05-05 14:49 | 38.70752 | -99.93540 | 38973 ft | 555 kts | 83° |
| 2026-05-05 14:49 | 38.71646 | -99.83721 | 38970 ft | 555 kts | 83° |
| 2026-05-05 14:50 | 38.72532 | -99.73890 | 38962 ft | 556 kts | 83° |
| 2026-05-05 14:50 | 38.73412 | -99.64038 | 38965 ft | 556 kts | 83° |
| 2026-05-05 14:51 | 38.74283 | -99.54194 | 38963 ft | 556 kts | 84° |
| 2026-05-05 14:51 | 38.75140 | -99.44404 | 38969 ft | 556 kts | 83° |
| 2026-05-05 14:52 | 38.75996 | -99.34535 | 39013 ft | 557 kts | 84° |
| 2026-05-05 14:52 | 38.76844 | -99.24664 | 39020 ft | 557 kts | 84° |
| 2026-05-05 14:53 | 38.77683 | -99.14788 | 39014 ft | 557 kts | 84° |
| 2026-05-05 14:53 | 38.78508 | -99.04982 | 39008 ft | 558 kts | 84° |
| 2026-05-05 14:54 | 38.79332 | -98.95092 | 38982 ft | 558 kts | 84° |
| 2026-05-05 14:54 | 38.80148 | -98.85190 | 38994 ft | 558 kts | 84° |
| 2026-05-05 14:55 | 38.80956 | -98.75282 | 38992 ft | 559 kts | 84° |
| 2026-05-05 14:55 | 38.81757 | -98.65355 | 38988 ft | 559 kts | 84° |
| 2026-05-05 14:56 | 38.82549 | -98.55439 | 38973 ft | 559 kts | 84° |
| 2026-05-05 14:56 | 38.83328 | -98.45575 | 38966 ft | 559 kts | 84° |
| 2026-05-05 14:57 | 38.84103 | -98.35646 | 38956 ft | 559 kts | 84° |
| 2026-05-05 14:57 | 38.84871 | -98.25709 | 38958 ft | 559 kts | 84° |
| 2026-05-05 14:58 | 38.85628 | -98.15792 | 38962 ft | 558 kts | 84° |
| 2026-05-05 14:58 | 38.86377 | -98.05871 | 38969 ft | 558 kts | 84° |
| 2026-05-05 14:59 | 38.87119 | -97.95942 | 38978 ft | 558 kts | 84° |
| 2026-05-05 14:59 | 38.87846 | -97.86078 | 38982 ft | 558 kts | 84° |
| 2026-05-05 15:00 | 38.88449 | -97.77825 | 38986 ft | 558 kts | 84° |
| 2026-05-05 15:00 | 38.89286 | -97.66226 | 38993 ft | 559 kts | 84° |
| 2026-05-05 15:01 | 38.89995 | -97.56274 | 39019 ft | 559 kts | 83° |
| 2026-05-05 15:01 | 38.90690 | -97.46388 | 38972 ft | 560 kts | 83° |
| 2026-05-05 15:02 | 38.91383 | -97.36419 | 38970 ft | 560 kts | 84° |
| 2026-05-05 15:02 | 38.92070 | -97.26414 | 38969 ft | 560 kts | 84° |
| 2026-05-05 15:03 | 38.92746 | -97.16440 | 38973 ft | 560 kts | 84° |
| 2026-05-05 15:03 | 38.93410 | -97.06510 | 38980 ft | 560 kts | 84° |
| 2026-05-05 15:04 | 38.94069 | -96.96534 | 38989 ft | 560 kts | 84° |
| 2026-05-05 15:04 | 38.94719 | -96.86559 | 38993 ft | 560 kts | 84° |
| 2026-05-05 15:05 | 38.95679 | -96.71586 | 38998 ft | 560 kts | 84° |
| 2026-05-05 15:06 | 38.96307 | -96.61612 | 38992 ft | 560 kts | 84° |
| 2026-05-05 15:06 | 38.96923 | -96.51710 | 38966 ft | 560 kts | 84° |
| 2026-05-05 15:07 | 38.97535 | -96.41723 | 38976 ft | 560 kts | 84° |
| 2026-05-05 15:07 | 38.98138 | -96.31742 | 38966 ft | 560 kts | 84° |
| 2026-05-05 15:08 | 38.98734 | -96.21753 | 38962 ft | 560 kts | 84° |
| 2026-05-05 15:08 | 38.99320 | -96.11762 | 38959 ft | 560 kts | 84° |
| 2026-05-05 15:09 | 38.99900 | -96.01761 | 38970 ft | 560 kts | 84° |
| 2026-05-05 15:09 | 39.00471 | -95.91792 | 38973 ft | 559 kts | 84° |
| 2026-05-05 15:10 | 39.01038 | -95.81888 | 38983 ft | 558 kts | 84° |
| 2026-05-05 15:10 | 39.01610 | -95.71933 | 38988 ft | 558 kts | 84° |
| 2026-05-05 15:11 | 39.02174 | -95.61975 | 38997 ft | 557 kts | 84° |
| 2026-05-05 15:11 | 39.02723 | -95.52040 | 38989 ft | 557 kts | 84° |
| 2026-05-05 15:12 | 39.03266 | -95.42111 | 38979 ft | 556 kts | 84° |
| 2026-05-05 15:12 | 39.03808 | -95.32182 | 38982 ft | 556 kts | 84° |
| 2026-05-05 15:13 | 39.04334 | -95.22271 | 38982 ft | 555 kts | 84° |
| 2026-05-05 15:13 | 39.04844 | -95.12368 | 38979 ft | 555 kts | 84° |
| 2026-05-05 15:14 | 39.05346 | -95.02513 | 38975 ft | 555 kts | 84° |
| 2026-05-05 15:14 | 39.05848 | -94.92604 | 38975 ft | 555 kts | 84° |
| 2026-05-05 15:15 | 39.06338 | -94.82673 | 38954 ft | 555 kts | 84° |
| 2026-05-05 15:15 | 39.06816 | -94.72741 | 38956 ft | 556 kts | 84° |
| 2026-05-05 15:16 | 39.07285 | -94.62872 | 38984 ft | 556 kts | 84° |
| 2026-05-05 15:16 | 39.07752 | -94.52929 | 38986 ft | 557 kts | 84° |
| 2026-05-05 15:17 | 39.08210 | -94.42971 | 38977 ft | 557 kts | 84° |
| 2026-05-05 15:17 | 39.08660 | -94.33005 | 38971 ft | 558 kts | 84° |
| 2026-05-05 15:18 | 39.09102 | -94.23039 | 38968 ft | 558 kts | 84° |
| 2026-05-05 15:18 | 39.09495 | -94.13049 | 38963 ft | 560 kts | 89° |
| 2026-05-05 15:18 | 39.09035 | -94.08127 | 38962 ft | 561 kts | 103° |
| 2026-05-05 15:19 | 39.08226 | -94.03218 | 38959 ft | 562 kts | 104° |
| 2026-05-05 15:19 | 39.06510 | -93.93394 | 38937 ft | 561 kts | 104° |
| 2026-05-05 15:20 | 39.04855 | -93.83593 | 38938 ft | 559 kts | 103° |
| 2026-05-05 15:20 | 39.03268 | -93.73819 | 38928 ft | 557 kts | 102° |
| 2026-05-05 15:21 | 39.01698 | -93.64068 | 38937 ft | 556 kts | 102° |
| 2026-05-05 15:21 | 39.00118 | -93.54338 | 38948 ft | 554 kts | 103° |
| 2026-05-05 15:22 | 38.98526 | -93.44631 | 38971 ft | 554 kts | 103° |
| 2026-05-05 15:22 | 38.96938 | -93.35007 | 38988 ft | 554 kts | 103° |
| 2026-05-05 15:23 | 38.95329 | -93.25314 | 38988 ft | 555 kts | 103° |
| 2026-05-05 15:23 | 38.94519 | -93.20450 | 38784 ft | 559 kts | 103° |
| 2026-05-05 15:23 | 38.93699 | -93.15544 | 38209 ft | 563 kts | 103° |
| 2026-05-05 15:23 | 38.92877 | -93.10635 | 37633 ft | 561 kts | 103° |
| 2026-05-05 15:24 | 38.92054 | -93.05734 | 37076 ft | 560 kts | 103° |
| 2026-05-05 15:24 | 38.91232 | -93.00849 | 36522 ft | 559 kts | 103° |
| 2026-05-05 15:24 | 38.90407 | -92.95964 | 35969 ft | 558 kts | 103° |
| 2026-05-05 15:24 | 38.89583 | -92.91092 | 35381 ft | 559 kts | 103° |
| 2026-05-05 15:25 | 38.88753 | -92.86208 | 34747 ft | 561 kts | 103° |
| 2026-05-05 15:25 | 38.87920 | -92.81315 | 34094 ft | 563 kts | 103° |
| 2026-05-05 15:25 | 38.87092 | -92.76463 | 33440 ft | 564 kts | 103° |
| 2026-05-05 15:25 | 38.86249 | -92.71536 | 32735 ft | 565 kts | 103° |
| 2026-05-05 15:26 | 38.85403 | -92.66606 | 31989 ft | 564 kts | 103° |
| 2026-05-05 15:26 | 38.84565 | -92.61729 | 31298 ft | 555 kts | 103° |
| 2026-05-05 15:26 | 38.83736 | -92.56920 | 30830 ft | 549 kts | 104° |
| 2026-05-05 15:26 | 38.82913 | -92.52155 | 30336 ft | 544 kts | 104° |
| 2026-05-05 15:27 | 38.82094 | -92.47429 | 29770 ft | 540 kts | 104° |
| 2026-05-05 15:27 | 38.81290 | -92.42804 | 29206 ft | 535 kts | 104° |
| 2026-05-05 15:27 | 38.80484 | -92.38176 | 28675 ft | 530 kts | 104° |
| 2026-05-05 15:27 | 38.79681 | -92.33581 | 28157 ft | 525 kts | 104° |
| 2026-05-05 15:28 | 38.78886 | -92.29038 | 27655 ft | 519 kts | 104° |
| 2026-05-05 15:28 | 38.78097 | -92.24543 | 27153 ft | 514 kts | 105° |
| 2026-05-05 15:28 | 38.77314 | -92.20090 | 26648 ft | 509 kts | 105° |
| 2026-05-05 15:28 | 38.76538 | -92.15693 | 26150 ft | 504 kts | 105° |
| 2026-05-05 15:29 | 38.75767 | -92.11331 | 25661 ft | 499 kts | 105° |
| 2026-05-05 15:29 | 38.75003 | -92.07018 | 25163 ft | 492 kts | 105° |
| 2026-05-05 15:29 | 38.74505 | -92.04207 | 24825 ft | 483 kts | 106° |
| 2026-05-05 15:29 | 38.73770 | -92.00063 | 24348 ft | 470 kts | 106° |
| 2026-05-05 15:30 | 38.72808 | -91.94664 | 23701 ft | 459 kts | 107° |
| 2026-05-05 15:30 | 38.72115 | -91.90756 | 23114 ft | 453 kts | 107° |
| 2026-05-05 15:30 | 38.71427 | -91.86856 | 22606 ft | 445 kts | 106° |
| 2026-05-05 15:30 | 38.70748 | -91.83016 | 22161 ft | 441 kts | 106° |
| 2026-05-05 15:31 | 38.70289 | -91.80431 | 21872 ft | 439 kts | 106° |
| 2026-05-05 15:31 | 38.69623 | -91.76681 | 21428 ft | 437 kts | 106° |
| 2026-05-05 15:31 | 38.69068 | -91.72854 | 20961 ft | 438 kts | 96° |
| 2026-05-05 15:31 | 38.69010 | -91.68961 | 20540 ft | 437 kts | 90° |
| 2026-05-05 15:32 | 38.69094 | -91.65085 | 20089 ft | 434 kts | 89° |
| 2026-05-05 15:32 | 38.69191 | -91.61231 | 19653 ft | 431 kts | 89° |
| 2026-05-05 15:32 | 38.69260 | -91.57410 | 19221 ft | 429 kts | 90° |
| 2026-05-05 15:32 | 38.69299 | -91.53604 | 18792 ft | 426 kts | 90° |
| 2026-05-05 15:33 | 38.69319 | -91.49822 | 18357 ft | 423 kts | 90° |
| 2026-05-05 15:33 | 38.69331 | -91.46062 | 17873 ft | 421 kts | 90° |
| 2026-05-05 15:33 | 38.69342 | -91.42319 | 17399 ft | 418 kts | 90° |
| 2026-05-05 15:33 | 38.69354 | -91.38626 | 17036 ft | 412 kts | 90° |
| 2026-05-05 15:34 | 38.69368 | -91.34973 | 16607 ft | 408 kts | 90° |
| 2026-05-05 15:34 | 38.69381 | -91.31358 | 16181 ft | 404 kts | 90° |
| 2026-05-05 15:34 | 38.69393 | -91.27821 | 15769 ft | 401 kts | 90° |
| 2026-05-05 15:34 | 38.69403 | -91.24269 | 15356 ft | 398 kts | 90° |
| 2026-05-05 15:35 | 38.69413 | -91.20746 | 14934 ft | 392 kts | 90° |
| 2026-05-05 15:35 | 38.69470 | -91.17281 | 14519 ft | 387 kts | 88° |
| 2026-05-05 15:35 | 38.69572 | -91.13849 | 14118 ft | 384 kts | 88° |
| 2026-05-05 15:35 | 38.69674 | -91.10437 | 13715 ft | 382 kts | 88° |
| 2026-05-05 15:36 | 38.69769 | -91.07057 | 13325 ft | 377 kts | 88° |
| 2026-05-05 15:36 | 38.69854 | -91.03711 | 12900 ft | 374 kts | 88° |
| 2026-05-05 15:36 | 38.69935 | -91.00391 | 12474 ft | 371 kts | 88° |
| 2026-05-05 15:36 | 38.70013 | -90.97110 | 12035 ft | 365 kts | 89° |
| 2026-05-05 15:37 | 38.70090 | -90.93903 | 11601 ft | 354 kts | 89° |
| 2026-05-05 15:37 | 38.70163 | -90.90779 | 11211 ft | 350 kts | 89° |
| 2026-05-05 15:37 | 38.70236 | -90.87676 | 10828 ft | 348 kts | 89° |
| 2026-05-05 15:37 | 38.70307 | -90.84595 | 10564 ft | 342 kts | 89° |
| 2026-05-05 15:38 | 38.70376 | -90.81595 | 10422 ft | 333 kts | 89° |
| 2026-05-05 15:38 | 38.70442 | -90.78704 | 10273 ft | 324 kts | 89° |
| 2026-05-05 15:38 | 38.70506 | -90.75847 | 10134 ft | 316 kts | 90° |
| 2026-05-05 15:38 | 38.70568 | -90.73065 | 10002 ft | 308 kts | 90° |
| 2026-05-05 15:39 | 38.70649 | -90.70337 | 9767 ft | 305 kts | 89° |
| 2026-05-05 15:39 | 38.70770 | -90.67635 | 9491 ft | 303 kts | 88° |
| 2026-05-05 15:39 | 38.70898 | -90.64949 | 9213 ft | 301 kts | 88° |
| 2026-05-05 15:39 | 38.71021 | -90.62281 | 8937 ft | 299 kts | 88° |
| 2026-05-05 15:40 | 38.71140 | -90.59634 | 8675 ft | 297 kts | 88° |
| 2026-05-05 15:40 | 38.71254 | -90.57036 | 8418 ft | 294 kts | 88° |
| 2026-05-05 15:40 | 38.71365 | -90.54428 | 8149 ft | 292 kts | 90° |
| 2026-05-05 15:40 | 38.71071 | -90.51906 | 7875 ft | 284 kts | 116° |
| 2026-05-05 15:41 | 38.70130 | -90.49723 | 7659 ft | 277 kts | 126° |
| 2026-05-05 15:41 | 38.69085 | -90.47656 | 7412 ft | 275 kts | 126° |
| 2026-05-05 15:41 | 38.68052 | -90.45608 | 7167 ft | 273 kts | 126° |
| 2026-05-05 15:41 | 38.67033 | -90.43573 | 6899 ft | 271 kts | 126° |
| 2026-05-05 15:42 | 38.66038 | -90.41573 | 6633 ft | 267 kts | 125° |
| 2026-05-05 15:42 | 38.65058 | -90.39590 | 6365 ft | 260 kts | 126° |
| 2026-05-05 15:42 | 38.64109 | -90.37667 | 6097 ft | 252 kts | 126° |
| 2026-05-05 15:42 | 38.63186 | -90.35797 | 5850 ft | 245 kts | 126° |
| 2026-05-05 15:43 | 38.62282 | -90.33969 | 5625 ft | 242 kts | 128° |
| 2026-05-05 15:43 | 38.61391 | -90.32171 | 5431 ft | 236 kts | 128° |
| 2026-05-05 15:43 | 38.60522 | -90.30415 | 5182 ft | 230 kts | 126° |
| 2026-05-05 15:43 | 38.59684 | -90.28708 | 4999 ft | 222 kts | 122° |
| 2026-05-05 15:44 | 38.59309 | -90.26811 | 4741 ft | 225 kts | 89° |
| 2026-05-05 15:44 | 38.59746 | -90.24920 | 4535 ft | 221 kts | 62° |
| 2026-05-05 15:44 | 38.60695 | -90.23408 | 4312 ft | 215 kts | 47° |
| 2026-05-05 15:44 | 38.61736 | -90.22084 | 4064 ft | 208 kts | 46° |
| 2026-05-05 15:45 | 38.62752 | -90.20809 | 3859 ft | 201 kts | 45° |
| 2026-05-05 15:45 | 38.63836 | -90.19750 | 3630 ft | 195 kts | 21° |
| 2026-05-05 15:45 | 38.65135 | -90.19582 | 3546 ft | 191 kts | 351° |
| 2026-05-05 15:45 | 38.66365 | -90.20268 | 3489 ft | 194 kts | 325° |
| 2026-05-05 15:46 | 38.67280 | -90.21596 | 3106 ft | 203 kts | 310° |
| 2026-05-05 15:46 | 38.68085 | -90.23067 | 2792 ft | 199 kts | 309° |
| 2026-05-05 15:46 | 38.68813 | -90.24518 | 2531 ft | 187 kts | 308° |
| 2026-05-05 15:46 | 38.69479 | -90.25882 | 2292 ft | 172 kts | 309° |
| 2026-05-05 15:47 | 38.70091 | -90.27133 | 2057 ft | 160 kts | 309° |
| 2026-05-05 15:47 | 38.70480 | -90.27924 | 1921 ft | 158 kts | 309° |
| 2026-05-05 15:47 | 38.71270 | -90.29532 | 1630 ft | 161 kts | 309° |
| 2026-05-05 15:47 | 38.71850 | -90.30764 | 1407 ft | 163 kts | 307° |
| 2026-05-05 15:48 | 38.72439 | -90.31979 | 1212 ft | 163 kts | 308° |
| 2026-05-05 15:48 | 38.73052 | -90.33177 | 967 ft | 159 kts | 307° |
| 2026-05-05 15:48 | 38.73631 | -90.34365 | 701 ft | 152 kts | 308° |
| 2026-05-05 15:48 | 38.74173 | -90.35442 | 580 ft | 125 kts | 303° |
| 2026-05-05 15:49 | 38.74517 | -90.36140 | 572 ft | 49 kts | 302° |
| 2026-05-05 15:49 | 38.74638 | -90.36384 | 562 ft | 21 kts | 301° |
| 2026-05-05 15:49 | 38.74641 | -90.36472 | 560 ft | 8 kts | 230° |
| 2026-05-05 15:49 | 38.74600 | -90.36507 | 562 ft | 9 kts | 213° |
| 2026-05-05 15:50 | 38.74531 | -90.36499 | 565 ft | 13 kts | 116° |
| 2026-05-05 15:50 | 38.74502 | -90.36399 | 562 ft | 12 kts | 120° |
| 2026-05-05 15:50 | 38.74457 | -90.36305 | 568 ft | 14 kts | 122° |
| 2026-05-05 15:50 | 38.74402 | -90.36193 | 569 ft | 16 kts | 122° |
| 2026-05-05 15:51 | 38.74343 | -90.36074 | 573 ft | 16 kts | 122° |
| 2026-05-05 15:51 | 38.74283 | -90.35954 | 574 ft | 16 kts | 124° |
| 2026-05-05 15:51 | 38.74226 | -90.35837 | 579 ft | 15 kts | 121° |
| 2026-05-05 15:51 | 38.74174 | -90.35732 | 577 ft | 13 kts | 123° |
| 2026-05-05 15:52 | 38.74125 | -90.35636 | 579 ft | 13 kts | 121° |
| 2026-05-05 15:52 | 38.74097 | -90.35580 | 577 ft | 6 kts | 126° |
| 2026-05-05 15:52 | 38.74061 | -90.35563 | 577 ft | 6 kts | 186° |
| 2026-05-05 15:52 | 38.74024 | -90.35583 | 576 ft | 6 kts | 206° |
| 2026-05-05 15:53 | 38.73990 | -90.35608 | 574 ft | 6 kts | 212° |
| 2026-05-05 15:53 | 38.73957 | -90.35634 | 579 ft | 6 kts | 212° |
| 2026-05-05 15:53 | 38.73921 | -90.35664 | 573 ft | 7 kts | 214° |
| 2026-05-05 15:53 | 38.73893 | -90.35723 | 577 ft | 9 kts | 244° |
| 2026-05-05 15:54 | 38.73866 | -90.35761 | 572 ft | 5 kts | 195° |
| 2026-05-05 15:54 | 38.73836 | -90.35758 | 572 ft | 4 kts | 169° |
| 2026-05-05 15:54 | 38.73813 | -90.35752 | 572 ft | 3 kts | 169° |
| 2026-05-05 15:54 | 38.73801 | -90.35749 | 572 ft | 1 kts | 169° |
| 2026-05-05 15:55 | 38.73793 | -90.35748 | 578 ft | 1 kts | 169° |